North Dighton, MA

41° 51' 30"N, 71° 08' 44"W, Elevation 95 ft.
Eastern Time

Hourly observations for the last 72 hours

Date Time Temperature (°F) Humi-
dity

(%)
Wind
(mph)
Pressure Rain (in) Sun
(W/m2)
UV ET
(in)
Air Dew 6 Hour 1 Hr 3 Hr 6 Hr Day
Alt
(in)
Sea
Level

(mb)
Max Min
28 15:00 73.7 63.3 70 E 3 G 10 29.98 1015.2 0.08 290 2.4 0.047
28 14:00 70.4 63.6 71.0 65.2 79 NNE 4 G 10 29.98 1015.4 0.08 243 2.1 0.032
28 13:00 69.3 63.6 82 N 7 G 15 29.98 1015.3 0.08 320 4.8 0.020
28 12:00 68.5 63.8 85 N 6 G 11 29.98 1015.3 0.08 420 3.3 0.010
28 11:00 65.3 62.6 91 NNE 4 G 10 29.98 1015.3 0.08 114 0.9 0.007
28 10:00 65.6 63.2 92 N 5 G 9 29.97 1014.9 0.08 86 0.6 0.004
28 09:00 65.6 64.1 95 NNW 2 G 6 29.95 1014.4 0.08 134 0.7 0.002
28 08:00 65.2 63.7 65.6 64.5 95 NNE 4 G 8 29.95 1014.2 0.07 0.08 46 0.0 0.000
28 07:00 64.9 63.7 96 N 2 G 4 29.93 1013.5 0.08 91 0.0 0.000
28 06:00 65.0 64.1 97 NE 5 G 11 29.92 1013.1 0.08 5 0.0 0.000
28 05:00 65.5 64.6 97 NNW 0 G 3 29.91 1013.0 0.07 0.08 0 0.0 0.000
28 04:00 65.4 64.2 96 NW 2 G 3 29.92 1013.1 0.07 0.08 0 0.0 0.000
28 03:00 65.3 64.1 96 NW 2 G 3 29.91 1012.9 0.01 0 0.0 0.000
28 02:00 65.6 64.4 77.8 65.4 96 Calm 29.89 1012.4 0.01 0.15 0.01 0 0.0 0.000
28 01:00 65.5 64.3 96 Calm 29.90 1012.4 0.01 0.01 0 0.0 0.000
28 00:00 65.5 64.0 95 N 1 G 3 29.89 1012.2 0.14 0 0.0 0.213
27 23:00 66.0 64.5 95 S 2 G 4 29.89 1012.2 0.01 0.14 0.14 0 0.0 0.213
27 22:00 66.4 64.6 94 WNW 1 G 3 29.94 1013.8 0.02 0.13 0 0.0 0.213
27 21:00 66.8 64.4 92 N 0 G 3 29.94 1014.0 0.11 0.11 0 0.0 0.213
27 20:00 77.8 64.2 89.4 77.8 63 NW 14 G 31 29.93 1013.5 0.00 0 0.0 0.210
27 19:00 80.7 64.6 58 S 5 G 13 29.86 1011.1 0.00 44 0.0 0.203
27 18:00 83.0 68.2 61 SSW 6 G 13 29.85 1011.0 0.00 260 0.5 0.193
27 17:00 85.4 69.5 59 SSW 6 G 14 29.85 1010.8 0.00 446 1.6 0.178
27 16:00 87.3 68.6 54 SSW 5 G 9 29.86 1011.3 0.00 260 2.2 0.159
27 15:00 87.9 64.6 46 NW 8 G 13 29.87 1011.5 0.00 798 4.8 0.135
27 14:00 87.2 65.2 87.5 70.4 48 W 4 G 8 29.88 1011.8 0.00 863 6.2 0.106
27 13:00 85.8 67.8 55 W 4 G 10 29.89 1012.3 0.00 865 6.6 0.079
27 12:00 85.3 68.4 57 SW 5 G 9 29.91 1012.8 0.00 849 6.3 0.053
27 11:00 82.8 67.5 60 S 2 G 3 29.91 1013.0 0.00 768 5.1 0.031
27 10:00 79.6 68.1 68 NW 4 G 9 29.91 1012.9 0.00 640 3.6 0.016
27 09:00 75.6 67.1 75 NW 3 G 7 29.91 1012.9 0.00 425 2.1 0.006
27 08:00 70.4 66.7 70.4 59.5 88 SSW 1 G 3 29.91 1012.8 0.00 301 0.9 0.001
27 07:00 61.7 60.8 97 Calm 29.91 1013.0 0.00 127 0.0 0.000
27 06:00 59.6 58.5 96 Calm 29.89 1012.3 0.00 21 0.0 0.000
27 05:00 59.9 58.8 96 Calm 29.87 1011.6 0.00 0 0.0 0.000
27 04:00 61.5 60.3 96 Calm 29.86 1011.3 0.00 0 0.0 0.000
27 03:00 61.9 60.5 95 WNW 0 G 2 29.86 1011.3 0.00 0 0.0 0.000
27 02:00 62.7 61.2 76.8 62.7 95 Calm 29.85 1011.0 0.00 0 0.0 0.000
27 01:00 64.2 62.7 95 Calm 29.87 1011.4 0.00 0 0.0 0.000
27 00:00 65.5 63.7 94 Calm 29.86 1011.3 0.00 0 0.0 0.208
26 23:00 67.2 65.1 93 WNW 0 G 1 29.86 1011.3 0.00 0 0.0 0.208
26 22:00 68.2 66.1 93 WSW 1 G 2 29.86 1011.1 0.00 0 0.0 0.208
26 21:00 70.8 67.7 90 WSW 0 G 1 29.84 1010.7 0.00 0 0.0 0.208
26 20:00 76.8 70.9 88.6 76.8 82 Calm 29.82 1010.0 0.00 7 0.0 0.208
26 19:00 83.2 72.0 69 WSW 1 G 3 29.82 1009.8 0.00 81 0.0 0.203
26 18:00 85.5 68.6 57 NW 1 G 6 29.81 1009.7 0.00 267 0.6 0.192
26 17:00 86.7 65.3 49 WNW 2 G 8 29.82 1009.9 0.00 431 1.4 0.176
26 16:00 87.9 67.5 51 W 4 G 10 29.81 1009.7 0.00 550 2.2 0.154
26 15:00 87.8 69.1 54 SSW 4 G 12 29.82 1009.8 0.00 786 4.5 0.129
26 14:00 87.0 70.5 87.4 73.1 58 WSW 4 G 8 29.82 1009.9 0.00 796 5.4 0.104
26 13:00 86.8 68.7 55 W 2 G 12 29.82 1010.0 0.00 937 6.7 0.076
26 12:00 84.6 70.2 62 SSW 4 G 10 29.83 1010.3 0.00 824 6.0 0.051
26 11:00 82.6 71.8 70 W 2 G 4 29.84 1010.6 0.00 504 5.1 0.032
26 10:00 80.2 71.2 74 NW 3 G 5 29.84 1010.5 0.00 652 3.7 0.017
26 09:00 76.9 71.7 84 NW 0 G 5 29.85 1010.9 0.00 436 2.2 0.006
26 08:00 73.1 71.0 73.1 69.2 93 WNW 0 G 3 29.84 1010.6 0.00 327 1.0 0.001
26 07:00 70.6 69.7 97 W 0 G 5 29.84 1010.6 0.00 86 0.0 0.000
26 06:00 70.3 69.4 97 SSW 2 G 4 29.83 1010.2 0.00 14 0.0 0.000
26 05:00 70.4 69.2 96 SSW 0 G 3 29.82 1009.8 0.00 0 0.0 0.000
26 04:00 70.6 69.4 96 W 1 G 4 29.82 1010.0 0.00 0 0.0 0.000
26 03:00 70.4 69.5 97 SW 2 G 6 29.83 1010.2 0.00 0 0.0 0.000
26 02:00 69.2 68.0 72.8 69.1 96 SSW 2 G 6 29.84 1010.6 0.00 0 0.0 0.000
26 01:00 69.4 68.2 96 S 2 G 5 29.85 1010.8 0.00 0 0.0 0.000
26 00:00 69.9 68.4 95 S 3 G 4 29.85 1010.7 0.05 0 0.0 0.060
25 23:00 70.4 68.6 94 S 4 G 6 29.84 1010.7 0.05 0 0.0 0.060
25 22:00 71.2 69.1 93 S 3 G 7 29.85 1011.0 0.05 0 0.0 0.060
25 21:00 72.4 69.9 92 SSW 3 G 7 29.85 1010.8 0.05 0 0.0 0.060
25 20:00 72.8 69.7 73.2 68.4 90 S 3 G 6 29.84 1010.4 0.05 0 0.0 0.059
25 19:00 73.2 69.4 88 S 4 G 7 29.83 1010.3 0.05 63 0.0 0.057
25 18:00 73.1 69.0 87 SSW 4 G 12 29.84 1010.6 0.05 109 0.0 0.053
25 17:00 72.0 67.2 85 SSW 8 G 15 29.85 1011.0 0.05 93 0.0 0.047
25 16:00 71.7 67.3 86 S 7 G 19 29.87 1011.5 0.05 257 1.7 0.039

Data generated by WxSolution Version 1.9.1.8, Build 2021.02.21.